sensor_id;sensor_type;location;lat;lon;timestamp;temperature;humidity
38090;DHT22;23904;52.322;10.232;2023-07-16T00:01:29;21.90;99.90
38090;DHT22;23904;52.322;10.232;2023-07-16T00:03:54;21.90;99.90
38090;DHT22;23904;52.322;10.232;2023-07-16T00:06:20;21.90;99.90
38090;DHT22;23904;52.322;10.232;2023-07-16T00:08:46;21.90;99.90
38090;DHT22;23904;52.322;10.232;2023-07-16T00:11:11;21.90;99.90
38090;DHT22;23904;52.322;10.232;2023-07-16T00:13:37;21.90;99.90
38090;DHT22;23904;52.322;10.232;2023-07-16T00:16:03;21.90;99.90
38090;DHT22;23904;52.322;10.232;2023-07-16T00:18:29;21.90;99.90
38090;DHT22;23904;52.322;10.232;2023-07-16T00:20:54;21.90;99.90
38090;DHT22;23904;52.322;10.232;2023-07-16T00:23:20;21.80;99.90
38090;DHT22;23904;52.322;10.232;2023-07-16T00:25:46;21.80;99.90
38090;DHT22;23904;52.322;10.232;2023-07-16T00:28:11;21.80;99.90
38090;DHT22;23904;52.322;10.232;2023-07-16T00:30:37;21.70;99.90
38090;DHT22;23904;52.322;10.232;2023-07-16T00:33:03;21.70;99.90
38090;DHT22;23904;52.322;10.232;2023-07-16T00:35:28;21.60;99.90
38090;DHT22;23904;52.322;10.232;2023-07-16T00:37:54;21.60;99.90
38090;DHT22;23904;52.322;10.232;2023-07-16T00:40:19;21.70;99.90
38090;DHT22;23904;52.322;10.232;2023-07-16T00:42:45;21.70;99.90
38090;DHT22;23904;52.322;10.232;2023-07-16T00:45:12;21.70;99.90
38090;DHT22;23904;52.322;10.232;2023-07-16T00:47:40;21.70;99.90
38090;DHT22;23904;52.322;10.232;2023-07-16T00:50:08;21.70;99.90
38090;DHT22;23904;52.322;10.232;2023-07-16T00:52:35;21.70;99.90
38090;DHT22;23904;52.322;10.232;2023-07-16T00:55:01;21.70;99.90
38090;DHT22;23904;52.322;10.232;2023-07-16T00:57:26;21.70;99.90
38090;DHT22;23904;52.322;10.232;2023-07-16T00:59:52;21.60;99.90
38090;DHT22;23904;52.322;10.232;2023-07-16T01:02:18;21.50;99.90
38090;DHT22;23904;52.322;10.232;2023-07-16T01:04:44;21.60;99.90
38090;DHT22;23904;52.322;10.232;2023-07-16T01:07:11;21.60;99.90
38090;DHT22;23904;52.322;10.232;2023-07-16T01:09:42;21.50;99.90
38090;DHT22;23904;52.322;10.232;2023-07-16T01:12:09;21.50;99.90
38090;DHT22;23904;52.322;10.232;2023-07-16T01:14:35;21.50;99.90
38090;DHT22;23904;52.322;10.232;2023-07-16T01:17:05;21.40;99.90
38090;DHT22;23904;52.322;10.232;2023-07-16T01:19:32;21.40;99.90
38090;DHT22;23904;52.322;10.232;2023-07-16T01:22:28;21.30;99.90
38090;DHT22;23904;52.322;10.232;2023-07-16T01:25:32;21.40;99.90
38090;DHT22;23904;52.322;10.232;2023-07-16T01:28:14;21.40;99.90
38090;DHT22;23904;52.322;10.232;2023-07-16T01:30:47;21.40;99.90
38090;DHT22;23904;52.322;10.232;2023-07-16T01:33:14;21.50;99.90
38090;DHT22;23904;52.322;10.232;2023-07-16T01:35:42;21.50;99.90
38090;DHT22;23904;52.322;10.232;2023-07-16T01:38:10;21.50;99.90
38090;DHT22;23904;52.322;10.232;2023-07-16T01:40:36;21.40;99.90
38090;DHT22;23904;52.322;10.232;2023-07-16T01:43:01;21.40;99.90
38090;DHT22;23904;52.322;10.232;2023-07-16T01:45:27;21.30;99.90
38090;DHT22;23904;52.322;10.232;2023-07-16T01:48:13;21.20;99.90
38090;DHT22;23904;52.322;10.232;2023-07-16T01:50:42;21.10;99.90
38090;DHT22;23904;52.322;10.232;2023-07-16T01:53:08;20.90;99.90
38090;DHT22;23904;52.322;10.232;2023-07-16T01:55:34;20.80;99.90
38090;DHT22;23904;52.322;10.232;2023-07-16T01:57:59;20.80;99.90
38090;DHT22;23904;52.322;10.232;2023-07-16T02:00:25;20.70;99.90
38090;DHT22;23904;52.322;10.232;2023-07-16T02:02:50;20.70;99.90
38090;DHT22;23904;52.322;10.232;2023-07-16T02:05:16;20.70;99.90
38090;DHT22;23904;52.322;10.232;2023-07-16T02:07:42;20.60;99.90
38090;DHT22;23904;52.322;10.232;2023-07-16T02:10:08;20.50;99.90
38090;DHT22;23904;52.322;10.232;2023-07-16T02:12:33;20.40;99.90
38090;DHT22;23904;52.322;10.232;2023-07-16T02:14:59;20.20;99.90
38090;DHT22;23904;52.322;10.232;2023-07-16T02:17:24;20.20;99.90
38090;DHT22;23904;52.322;10.232;2023-07-16T02:19:50;20.10;99.90
38090;DHT22;23904;52.322;10.232;2023-07-16T02:22:16;20.10;99.90
38090;DHT22;23904;52.322;10.232;2023-07-16T02:24:41;19.90;99.90
38090;DHT22;23904;52.322;10.232;2023-07-16T02:27:07;19.80;99.90
38090;DHT22;23904;52.322;10.232;2023-07-16T02:29:33;19.80;99.90
38090;DHT22;23904;52.322;10.232;2023-07-16T02:31:58;19.80;99.90
38090;DHT22;23904;52.322;10.232;2023-07-16T02:34:24;19.70;99.90
38090;DHT22;23904;52.322;10.232;2023-07-16T02:36:50;19.70;99.90
38090;DHT22;23904;52.322;10.232;2023-07-16T02:39:15;19.70;99.90
38090;DHT22;23904;52.322;10.232;2023-07-16T02:41:41;19.60;99.90
38090;DHT22;23904;52.322;10.232;2023-07-16T02:44:08;19.60;99.90
38090;DHT22;23904;52.322;10.232;2023-07-16T02:46:34;19.50;99.90
38090;DHT22;23904;52.322;10.232;2023-07-16T02:49:00;19.40;99.90
38090;DHT22;23904;52.322;10.232;2023-07-16T02:51:26;19.40;99.90
38090;DHT22;23904;52.322;10.232;2023-07-16T02:53:51;19.30;99.90
38090;DHT22;23904;52.322;10.232;2023-07-16T02:56:17;19.30;99.90
38090;DHT22;23904;52.322;10.232;2023-07-16T02:58:42;19.40;99.90
38090;DHT22;23904;52.322;10.232;2023-07-16T03:01:08;19.30;99.90
38090;DHT22;23904;52.322;10.232;2023-07-16T03:03:34;19.30;99.90
38090;DHT22;23904;52.322;10.232;2023-07-16T03:06:00;19.40;99.90
38090;DHT22;23904;52.322;10.232;2023-07-16T03:08:25;19.30;99.90
38090;DHT22;23904;52.322;10.232;2023-07-16T03:10:55;19.30;99.90
38090;DHT22;23904;52.322;10.232;2023-07-16T03:13:22;19.30;99.90
38090;DHT22;23904;52.322;10.232;2023-07-16T03:15:47;19.30;99.90
38090;DHT22;23904;52.322;10.232;2023-07-16T03:18:13;19.30;99.90
38090;DHT22;23904;52.322;10.232;2023-07-16T03:20:38;19.30;99.90
38090;DHT22;23904;52.322;10.232;2023-07-16T03:23:05;19.20;99.90
38090;DHT22;23904;52.322;10.232;2023-07-16T03:25:30;19.20;99.90
38090;DHT22;23904;52.322;10.232;2023-07-16T03:27:56;19.20;99.90
38090;DHT22;23904;52.322;10.232;2023-07-16T03:30:22;19.20;99.90
38090;DHT22;23904;52.322;10.232;2023-07-16T03:32:47;19.20;99.90
38090;DHT22;23904;52.322;10.232;2023-07-16T03:35:13;19.20;99.90
38090;DHT22;23904;52.322;10.232;2023-07-16T03:37:38;19.20;99.90
38090;DHT22;23904;52.322;10.232;2023-07-16T03:40:15;19.20;99.90
38090;DHT22;23904;52.322;10.232;2023-07-16T03:42:42;19.20;99.90
38090;DHT22;23904;52.322;10.232;2023-07-16T03:45:09;19.20;99.90
38090;DHT22;23904;52.322;10.232;2023-07-16T03:47:35;19.30;99.90
38090;DHT22;23904;52.322;10.232;2023-07-16T03:50:01;19.30;99.90
38090;DHT22;23904;52.322;10.232;2023-07-16T03:52:27;19.30;99.90
38090;DHT22;23904;52.322;10.232;2023-07-16T03:54:54;19.30;99.90
38090;DHT22;23904;52.322;10.232;2023-07-16T03:57:20;19.30;99.90
38090;DHT22;23904;52.322;10.232;2023-07-16T03:59:46;19.30;99.90
38090;DHT22;23904;52.322;10.232;2023-07-16T04:02:11;19.30;99.90
38090;DHT22;23904;52.322;10.232;2023-07-16T04:04:37;19.30;99.90
38090;DHT22;23904;52.322;10.232;2023-07-16T04:07:03;19.20;99.90
38090;DHT22;23904;52.322;10.232;2023-07-16T04:09:28;19.20;99.90
38090;DHT22;23904;52.322;10.232;2023-07-16T04:11:54;19.10;99.90
38090;DHT22;23904;52.322;10.232;2023-07-16T04:14:19;19.20;99.90
38090;DHT22;23904;52.322;10.232;2023-07-16T04:16:45;19.20;99.90
38090;DHT22;23904;52.322;10.232;2023-07-16T04:19:11;19.10;99.90
38090;DHT22;23904;52.322;10.232;2023-07-16T04:21:36;19.20;99.90
38090;DHT22;23904;52.322;10.232;2023-07-16T04:24:02;19.20;99.90
38090;DHT22;23904;52.322;10.232;2023-07-16T04:26:28;19.30;99.90
38090;DHT22;23904;52.322;10.232;2023-07-16T04:28:54;19.20;99.90
38090;DHT22;23904;52.322;10.232;2023-07-16T04:31:20;19.20;99.90
38090;DHT22;23904;52.322;10.232;2023-07-16T04:33:45;19.20;99.90
38090;DHT22;23904;52.322;10.232;2023-07-16T04:36:11;19.20;99.90
38090;DHT22;23904;52.322;10.232;2023-07-16T04:38:36;19.20;99.90
38090;DHT22;23904;52.322;10.232;2023-07-16T04:41:02;19.20;99.90
38090;DHT22;23904;52.322;10.232;2023-07-16T04:43:28;19.20;99.90
38090;DHT22;23904;52.322;10.232;2023-07-16T04:45:53;19.10;99.90
38090;DHT22;23904;52.322;10.232;2023-07-16T04:48:19;19.20;99.90
38090;DHT22;23904;52.322;10.232;2023-07-16T04:50:44;19.20;99.90
38090;DHT22;23904;52.322;10.232;2023-07-16T04:53:10;19.20;99.90
38090;DHT22;23904;52.322;10.232;2023-07-16T04:55:39;19.20;99.90
38090;DHT22;23904;52.322;10.232;2023-07-16T04:58:05;19.20;99.90
38090;DHT22;23904;52.322;10.232;2023-07-16T05:00:32;19.20;99.90
38090;DHT22;23904;52.322;10.232;2023-07-16T05:02:58;19.30;99.90
38090;DHT22;23904;52.322;10.232;2023-07-16T05:05:24;19.30;99.90
38090;DHT22;23904;52.322;10.232;2023-07-16T05:07:50;19.20;99.90
38090;DHT22;23904;52.322;10.232;2023-07-16T05:10:15;19.30;99.90
38090;DHT22;23904;52.322;10.232;2023-07-16T05:12:41;19.20;99.90
38090;DHT22;23904;52.322;10.232;2023-07-16T05:15:07;19.30;99.90
38090;DHT22;23904;52.322;10.232;2023-07-16T05:17:33;19.30;99.90
38090;DHT22;23904;52.322;10.232;2023-07-16T05:19:58;19.30;99.90
38090;DHT22;23904;52.322;10.232;2023-07-16T05:22:24;19.20;99.90
38090;DHT22;23904;52.322;10.232;2023-07-16T05:24:50;19.20;99.90
38090;DHT22;23904;52.322;10.232;2023-07-16T05:27:16;19.10;99.90
38090;DHT22;23904;52.322;10.232;2023-07-16T05:29:41;19.30;99.90
38090;DHT22;23904;52.322;10.232;2023-07-16T05:32:07;19.30;99.90
38090;DHT22;23904;52.322;10.232;2023-07-16T05:34:33;19.30;99.90
38090;DHT22;23904;52.322;10.232;2023-07-16T05:36:59;19.40;99.90
38090;DHT22;23904;52.322;10.232;2023-07-16T05:39:25;19.40;99.90
38090;DHT22;23904;52.322;10.232;2023-07-16T05:41:50;19.40;99.90
38090;DHT22;23904;52.322;10.232;2023-07-16T05:44:16;19.50;99.90
38090;DHT22;23904;52.322;10.232;2023-07-16T05:46:42;19.50;99.90
38090;DHT22;23904;52.322;10.232;2023-07-16T05:49:07;19.50;99.90
38090;DHT22;23904;52.322;10.232;2023-07-16T05:51:33;19.60;99.90
38090;DHT22;23904;52.322;10.232;2023-07-16T05:53:58;19.60;99.90
38090;DHT22;23904;52.322;10.232;2023-07-16T05:56:24;19.60;99.90
38090;DHT22;23904;52.322;10.232;2023-07-16T05:58:49;19.60;99.90
38090;DHT22;23904;52.322;10.232;2023-07-16T06:01:15;19.70;99.90
38090;DHT22;23904;52.322;10.232;2023-07-16T06:03:41;19.60;99.90
38090;DHT22;23904;52.322;10.232;2023-07-16T06:06:08;19.60;99.90
38090;DHT22;23904;52.322;10.232;2023-07-16T06:08:34;19.60;99.90
38090;DHT22;23904;52.322;10.232;2023-07-16T06:11:00;19.60;99.90
38090;DHT22;23904;52.322;10.232;2023-07-16T06:13:26;19.70;99.90
38090;DHT22;23904;52.322;10.232;2023-07-16T06:15:52;19.80;99.90
38090;DHT22;23904;52.322;10.232;2023-07-16T06:18:17;19.80;99.90
38090;DHT22;23904;52.322;10.232;2023-07-16T06:20:44;19.80;99.90
38090;DHT22;23904;52.322;10.232;2023-07-16T06:23:11;19.80;99.90
38090;DHT22;23904;52.322;10.232;2023-07-16T06:25:37;19.80;99.90
38090;DHT22;23904;52.322;10.232;2023-07-16T06:28:04;19.80;99.90
38090;DHT22;23904;52.322;10.232;2023-07-16T06:30:29;19.90;99.90
38090;DHT22;23904;52.322;10.232;2023-07-16T06:32:57;19.90;99.90
38090;DHT22;23904;52.322;10.232;2023-07-16T06:35:23;20.00;99.90
38090;DHT22;23904;52.322;10.232;2023-07-16T06:37:48;20.00;99.90
38090;DHT22;23904;52.322;10.232;2023-07-16T06:40:14;20.10;99.90
38090;DHT22;23904;52.322;10.232;2023-07-16T06:42:39;20.10;99.90
38090;DHT22;23904;52.322;10.232;2023-07-16T06:45:06;20.20;99.90
38090;DHT22;23904;52.322;10.232;2023-07-16T06:47:32;20.40;99.90
38090;DHT22;23904;52.322;10.232;2023-07-16T06:49:57;20.30;99.90
38090;DHT22;23904;52.322;10.232;2023-07-16T06:52:24;20.30;99.90
38090;DHT22;23904;52.322;10.232;2023-07-16T06:54:56;20.30;99.90
38090;DHT22;23904;52.322;10.232;2023-07-16T06:57:24;20.40;99.90
38090;DHT22;23904;52.322;10.232;2023-07-16T06:59:50;20.40;99.90
38090;DHT22;23904;52.322;10.232;2023-07-16T07:02:17;20.40;99.90
38090;DHT22;23904;52.322;10.232;2023-07-16T07:04:43;20.50;99.90
38090;DHT22;23904;52.322;10.232;2023-07-16T07:07:08;20.50;99.90
38090;DHT22;23904;52.322;10.232;2023-07-16T07:09:34;20.60;99.90
38090;DHT22;23904;52.322;10.232;2023-07-16T07:12:00;20.70;99.90
38090;DHT22;23904;52.322;10.232;2023-07-16T07:14:26;20.70;99.90
38090;DHT22;23904;52.322;10.232;2023-07-16T07:16:52;20.80;99.90
38090;DHT22;23904;52.322;10.232;2023-07-16T07:19:17;20.80;99.90
38090;DHT22;23904;52.322;10.232;2023-07-16T07:21:43;21.00;99.90
38090;DHT22;23904;52.322;10.232;2023-07-16T07:24:08;21.10;99.90
38090;DHT22;23904;52.322;10.232;2023-07-16T07:26:34;21.30;99.90
38090;DHT22;23904;52.322;10.232;2023-07-16T07:28:59;21.40;99.90
38090;DHT22;23904;52.322;10.232;2023-07-16T07:31:25;21.60;99.90
38090;DHT22;23904;52.322;10.232;2023-07-16T07:33:51;21.60;99.90
38090;DHT22;23904;52.322;10.232;2023-07-16T07:36:19;21.70;99.90
38090;DHT22;23904;52.322;10.232;2023-07-16T07:38:45;21.60;99.90
38090;DHT22;23904;52.322;10.232;2023-07-16T07:41:10;21.60;99.90
38090;DHT22;23904;52.322;10.232;2023-07-16T07:43:36;21.80;99.90
38090;DHT22;23904;52.322;10.232;2023-07-16T07:46:02;21.70;99.90
38090;DHT22;23904;52.322;10.232;2023-07-16T07:48:27;21.50;99.90
38090;DHT22;23904;52.322;10.232;2023-07-16T07:50:53;21.70;99.90
38090;DHT22;23904;52.322;10.232;2023-07-16T07:53:19;21.80;99.90
38090;DHT22;23904;52.322;10.232;2023-07-16T07:55:45;21.80;99.90
38090;DHT22;23904;52.322;10.232;2023-07-16T07:58:11;21.90;99.90
38090;DHT22;23904;52.322;10.232;2023-07-16T08:00:37;21.90;99.90
38090;DHT22;23904;52.322;10.232;2023-07-16T08:03:03;22.00;99.90
38090;DHT22;23904;52.322;10.232;2023-07-16T08:05:29;22.10;99.90
38090;DHT22;23904;52.322;10.232;2023-07-16T08:07:54;22.00;99.40
38090;DHT22;23904;52.322;10.232;2023-07-16T08:10:21;22.20;99.60
38090;DHT22;23904;52.322;10.232;2023-07-16T08:20:09;22.70;99.00
38090;DHT22;23904;52.322;10.232;2023-07-16T08:22:35;22.90;99.00
38090;DHT22;23904;52.322;10.232;2023-07-16T08:25:01;22.90;98.80
38090;DHT22;23904;52.322;10.232;2023-07-16T08:27:29;23.00;95.80
38090;DHT22;23904;52.322;10.232;2023-07-16T08:29:54;23.00;95.70
38090;DHT22;23904;52.322;10.232;2023-07-16T08:32:20;22.90;94.90
38090;DHT22;23904;52.322;10.232;2023-07-16T08:34:46;23.00;95.40
38090;DHT22;23904;52.322;10.232;2023-07-16T08:37:13;23.10;95.30
38090;DHT22;23904;52.322;10.232;2023-07-16T08:39:39;23.40;96.50
38090;DHT22;23904;52.322;10.232;2023-07-16T08:42:05;23.50;95.10
38090;DHT22;23904;52.322;10.232;2023-07-16T08:44:31;23.60;93.80
38090;DHT22;23904;52.322;10.232;2023-07-16T08:46:57;23.70;94.10
38090;DHT22;23904;52.322;10.232;2023-07-16T08:49:23;23.90;93.20
38090;DHT22;23904;52.322;10.232;2023-07-16T08:51:52;24.20;93.00
38090;DHT22;23904;52.322;10.232;2023-07-16T08:54:19;24.60;92.90
38090;DHT22;23904;52.322;10.232;2023-07-16T08:56:45;25.10;91.60
38090;DHT22;23904;52.322;10.232;2023-07-16T08:59:12;26.20;90.10
38090;DHT22;23904;52.322;10.232;2023-07-16T09:01:39;26.60;87.70
38090;DHT22;23904;52.322;10.232;2023-07-16T09:04:05;26.80;85.30
38090;DHT22;23904;52.322;10.232;2023-07-16T09:06:30;27.30;83.20
38090;DHT22;23904;52.322;10.232;2023-07-16T09:13:06;28.60;79.00
38090;DHT22;23904;52.322;10.232;2023-07-16T09:15:32;29.40;74.00
38090;DHT22;23904;52.322;10.232;2023-07-16T09:17:59;30.10;69.10
38090;DHT22;23904;52.322;10.232;2023-07-16T09:20:26;30.50;67.30
38090;DHT22;23904;52.322;10.232;2023-07-16T09:22:59;30.50;64.40
38090;DHT22;23904;52.322;10.232;2023-07-16T09:25:31;31.20;63.10
38090;DHT22;23904;52.322;10.232;2023-07-16T09:28:03;30.70;63.10
38090;DHT22;23904;52.322;10.232;2023-07-16T09:30:33;31.10;62.80
38090;DHT22;23904;52.322;10.232;2023-07-16T09:33:15;31.90;60.40
38090;DHT22;23904;52.322;10.232;2023-07-16T09:35:42;31.60;59.00
38090;DHT22;23904;52.322;10.232;2023-07-16T09:38:09;31.60;60.70
38090;DHT22;23904;52.322;10.232;2023-07-16T09:40:38;32.40;59.30
38090;DHT22;23904;52.322;10.232;2023-07-16T09:43:08;32.10;60.10
38090;DHT22;23904;52.322;10.232;2023-07-16T09:45:34;32.30;57.70
38090;DHT22;23904;52.322;10.232;2023-07-16T09:48:01;32.90;55.30
38090;DHT22;23904;52.322;10.232;2023-07-16T09:50:28;31.90;55.70
38090;DHT22;23904;52.322;10.232;2023-07-16T09:52:56;32.30;55.70
38090;DHT22;23904;52.322;10.232;2023-07-16T09:55:23;32.80;54.20
38090;DHT22;23904;52.322;10.232;2023-07-16T09:57:51;33.60;53.20
38090;DHT22;23904;52.322;10.232;2023-07-16T10:00:21;34.20;52.10
38090;DHT22;23904;52.322;10.232;2023-07-16T10:02:48;33.90;53.10
38090;DHT22;23904;52.322;10.232;2023-07-16T10:05:23;33.40;52.00
38090;DHT22;23904;52.322;10.232;2023-07-16T10:07:55;32.60;51.30
38090;DHT22;23904;52.322;10.232;2023-07-16T10:10:54;32.10;53.80
38090;DHT22;23904;52.322;10.232;2023-07-16T10:13:23;32.60;55.10
38090;DHT22;23904;52.322;10.232;2023-07-16T10:15:56;33.80;52.40
38090;DHT22;23904;52.322;10.232;2023-07-16T10:18:24;33.40;51.50
38090;DHT22;23904;52.322;10.232;2023-07-16T10:20:53;34.20;49.60
38090;DHT22;23904;52.322;10.232;2023-07-16T10:23:19;33.90;51.20
38090;DHT22;23904;52.322;10.232;2023-07-16T10:26:01;33.20;51.70
38090;DHT22;23904;52.322;10.232;2023-07-16T10:32:08;33.90;50.00
38090;DHT22;23904;52.322;10.232;2023-07-16T10:34:35;34.60;49.00
38090;DHT22;23904;52.322;10.232;2023-07-16T10:37:01;34.20;48.90
38090;DHT22;23904;52.322;10.232;2023-07-16T10:39:29;34.50;49.20
38090;DHT22;23904;52.322;10.232;2023-07-16T10:41:56;35.20;48.50
38090;DHT22;23904;52.322;10.232;2023-07-16T10:44:23;33.60;49.10
38090;DHT22;23904;52.322;10.232;2023-07-16T10:46:48;32.20;52.20
38090;DHT22;23904;52.322;10.232;2023-07-16T10:49:14;31.70;52.60
38090;DHT22;23904;52.322;10.232;2023-07-16T10:51:39;32.50;50.30
38090;DHT22;23904;52.322;10.232;2023-07-16T10:54:05;32.90;51.20
38090;DHT22;23904;52.322;10.232;2023-07-16T10:56:36;31.50;53.40
38090;DHT22;23904;52.322;10.232;2023-07-16T10:59:02;31.30;53.30
38090;DHT22;23904;52.322;10.232;2023-07-16T11:01:33;31.80;53.00
38090;DHT22;23904;52.322;10.232;2023-07-16T11:04:01;33.10;51.90
38090;DHT22;23904;52.322;10.232;2023-07-16T11:06:27;34.50;49.10
38090;DHT22;23904;52.322;10.232;2023-07-16T11:08:52;35.20;48.30
38090;DHT22;23904;52.322;10.232;2023-07-16T11:11:28;35.10;49.30
38090;DHT22;23904;52.322;10.232;2023-07-16T11:13:55;34.90;46.70
38090;DHT22;23904;52.322;10.232;2023-07-16T11:16:20;33.30;48.40
38090;DHT22;23904;52.322;10.232;2023-07-16T11:18:47;32.10;50.20
38090;DHT22;23904;52.322;10.232;2023-07-16T11:21:13;31.60;52.00
38090;DHT22;23904;52.322;10.232;2023-07-16T11:23:38;32.30;51.00
38090;DHT22;23904;52.322;10.232;2023-07-16T11:26:04;32.70;48.90
38090;DHT22;23904;52.322;10.232;2023-07-16T11:28:40;32.70;49.50
38090;DHT22;23904;52.322;10.232;2023-07-16T11:31:10;33.00;48.90
38090;DHT22;23904;52.322;10.232;2023-07-16T11:33:42;33.90;45.80
38090;DHT22;23904;52.322;10.232;2023-07-16T11:36:11;34.50;47.30
38090;DHT22;23904;52.322;10.232;2023-07-16T11:38:38;34.80;44.00
38090;DHT22;23904;52.322;10.232;2023-07-16T11:41:04;35.10;45.40
38090;DHT22;23904;52.322;10.232;2023-07-16T11:43:37;35.20;46.00
38090;DHT22;23904;52.322;10.232;2023-07-16T11:46:14;35.80;46.30
38090;DHT22;23904;52.322;10.232;2023-07-16T11:48:41;35.60;43.60
38090;DHT22;23904;52.322;10.232;2023-07-16T11:51:07;35.80;43.30
38090;DHT22;23904;52.322;10.232;2023-07-16T11:53:33;35.40;45.30
38090;DHT22;23904;52.322;10.232;2023-07-16T11:55:58;34.90;45.20
38090;DHT22;23904;52.322;10.232;2023-07-16T11:58:24;34.60;44.60
38090;DHT22;23904;52.322;10.232;2023-07-16T12:00:50;35.20;43.80
38090;DHT22;23904;52.322;10.232;2023-07-16T12:03:16;34.50;44.80
38090;DHT22;23904;52.322;10.232;2023-07-16T12:05:43;34.60;44.90
38090;DHT22;23904;52.322;10.232;2023-07-16T12:08:08;34.60;44.40
38090;DHT22;23904;52.322;10.232;2023-07-16T12:10:40;34.70;43.70
38090;DHT22;23904;52.322;10.232;2023-07-16T12:13:06;34.90;45.10
38090;DHT22;23904;52.322;10.232;2023-07-16T12:15:31;35.20;44.00
38090;DHT22;23904;52.322;10.232;2023-07-16T12:17:58;35.10;42.30
38090;DHT22;23904;52.322;10.232;2023-07-16T12:20:23;35.10;43.10
38090;DHT22;23904;52.322;10.232;2023-07-16T12:22:49;35.40;43.30
38090;DHT22;23904;52.322;10.232;2023-07-16T12:25:16;34.40;45.40
38090;DHT22;23904;52.322;10.232;2023-07-16T12:27:42;34.30;44.70
38090;DHT22;23904;52.322;10.232;2023-07-16T12:30:07;34.30;44.80
38090;DHT22;23904;52.322;10.232;2023-07-16T12:32:33;34.60;42.30
38090;DHT22;23904;52.322;10.232;2023-07-16T12:34:59;34.60;41.30
38090;DHT22;23904;52.322;10.232;2023-07-16T12:37:26;34.20;43.90
38090;DHT22;23904;52.322;10.232;2023-07-16T12:39:51;34.90;44.10
38090;DHT22;23904;52.322;10.232;2023-07-16T12:42:17;34.70;43.70
38090;DHT22;23904;52.322;10.232;2023-07-16T12:44:43;33.80;44.70
38090;DHT22;23904;52.322;10.232;2023-07-16T12:47:09;33.80;43.60
38090;DHT22;23904;52.322;10.232;2023-07-16T12:49:34;33.70;44.70
38090;DHT22;23904;52.322;10.232;2023-07-16T12:52:00;33.90;45.30
38090;DHT22;23904;52.322;10.232;2023-07-16T12:54:26;33.60;45.20
38090;DHT22;23904;52.322;10.232;2023-07-16T12:56:51;33.10;44.10
38090;DHT22;23904;52.322;10.232;2023-07-16T12:59:17;32.50;45.70
38090;DHT22;23904;52.322;10.232;2023-07-16T13:01:43;31.50;46.90
38090;DHT22;23904;52.322;10.232;2023-07-16T13:04:08;30.70;48.10
38090;DHT22;23904;52.322;10.232;2023-07-16T13:06:34;30.50;48.90
38090;DHT22;23904;52.322;10.232;2023-07-16T13:08:59;29.90;48.40
38090;DHT22;23904;52.322;10.232;2023-07-16T13:11:25;29.10;50.00
38090;DHT22;23904;52.322;10.232;2023-07-16T13:13:51;29.20;51.10
38090;DHT22;23904;52.322;10.232;2023-07-16T13:16:17;29.40;50.10
38090;DHT22;23904;52.322;10.232;2023-07-16T13:18:42;29.70;49.80
38090;DHT22;23904;52.322;10.232;2023-07-16T13:21:08;30.00;49.60
38090;DHT22;23904;52.322;10.232;2023-07-16T13:23:33;29.90;51.30
38090;DHT22;23904;52.322;10.232;2023-07-16T13:26:01;30.20;49.30
38090;DHT22;23904;52.322;10.232;2023-07-16T13:28:26;30.50;47.80
38090;DHT22;23904;52.322;10.232;2023-07-16T13:30:54;30.00;48.30
38090;DHT22;23904;52.322;10.232;2023-07-16T13:33:19;29.40;49.60
38090;DHT22;23904;52.322;10.232;2023-07-16T13:35:45;29.50;49.50
38090;DHT22;23904;52.322;10.232;2023-07-16T13:38:17;29.70;49.70
38090;DHT22;23904;52.322;10.232;2023-07-16T13:40:43;29.90;50.50
38090;DHT22;23904;52.322;10.232;2023-07-16T13:43:08;29.90;50.20
38090;DHT22;23904;52.322;10.232;2023-07-16T13:45:34;30.10;48.50
38090;DHT22;23904;52.322;10.232;2023-07-16T13:48:00;30.10;50.70
38090;DHT22;23904;52.322;10.232;2023-07-16T13:50:25;29.90;49.80
38090;DHT22;23904;52.322;10.232;2023-07-16T13:52:51;30.00;48.30
38090;DHT22;23904;52.322;10.232;2023-07-16T13:55:17;29.90;49.50
38090;DHT22;23904;52.322;10.232;2023-07-16T13:57:43;29.70;51.30
38090;DHT22;23904;52.322;10.232;2023-07-16T14:00:09;29.70;51.60
38090;DHT22;23904;52.322;10.232;2023-07-16T14:02:36;29.50;51.00
38090;DHT22;23904;52.322;10.232;2023-07-16T14:05:02;29.40;50.60
38090;DHT22;23904;52.322;10.232;2023-07-16T14:07:28;28.90;50.90
38090;DHT22;23904;52.322;10.232;2023-07-16T14:09:54;28.70;51.00
38090;DHT22;23904;52.322;10.232;2023-07-16T14:12:21;28.50;51.90
38090;DHT22;23904;52.322;10.232;2023-07-16T14:14:46;28.60;52.20
38090;DHT22;23904;52.322;10.232;2023-07-16T14:17:12;28.70;52.90
38090;DHT22;23904;52.322;10.232;2023-07-16T14:19:38;29.00;52.60
38090;DHT22;23904;52.322;10.232;2023-07-16T14:22:03;29.10;53.20
38090;DHT22;23904;52.322;10.232;2023-07-16T14:24:29;29.00;53.30
38090;DHT22;23904;52.322;10.232;2023-07-16T14:26:58;29.00;53.40
38090;DHT22;23904;52.322;10.232;2023-07-16T14:29:25;29.10;54.70
38090;DHT22;23904;52.322;10.232;2023-07-16T14:31:52;28.80;53.50
38090;DHT22;23904;52.322;10.232;2023-07-16T14:34:18;28.70;51.70
38090;DHT22;23904;52.322;10.232;2023-07-16T14:36:44;28.70;52.30
38090;DHT22;23904;52.322;10.232;2023-07-16T14:39:09;28.90;53.70
38090;DHT22;23904;52.322;10.232;2023-07-16T14:41:35;29.10;54.40
38090;DHT22;23904;52.322;10.232;2023-07-16T14:44:01;29.20;53.60
38090;DHT22;23904;52.322;10.232;2023-07-16T14:46:26;29.30;53.40
38090;DHT22;23904;52.322;10.232;2023-07-16T14:48:52;29.20;53.30
38090;DHT22;23904;52.322;10.232;2023-07-16T14:51:21;29.30;53.70
38090;DHT22;23904;52.322;10.232;2023-07-16T14:53:46;29.10;52.50
38090;DHT22;23904;52.322;10.232;2023-07-16T14:56:12;29.00;53.00
38090;DHT22;23904;52.322;10.232;2023-07-16T14:58:37;29.00;53.90
38090;DHT22;23904;52.322;10.232;2023-07-16T15:01:03;28.90;53.90
38090;DHT22;23904;52.322;10.232;2023-07-16T15:03:35;28.90;53.70
38090;DHT22;23904;52.322;10.232;2023-07-16T15:06:02;28.80;52.40
38090;DHT22;23904;52.322;10.232;2023-07-16T15:08:28;28.60;54.10
38090;DHT22;23904;52.322;10.232;2023-07-16T15:10:58;28.70;53.90
38090;DHT22;23904;52.322;10.232;2023-07-16T15:13:24;28.60;53.40
38090;DHT22;23904;52.322;10.232;2023-07-16T15:15:51;28.50;53.40
38090;DHT22;23904;52.322;10.232;2023-07-16T15:18:18;28.40;52.70
38090;DHT22;23904;52.322;10.232;2023-07-16T15:20:45;28.30;54.70
38090;DHT22;23904;52.322;10.232;2023-07-16T15:23:11;28.10;53.60
38090;DHT22;23904;52.322;10.232;2023-07-16T15:25:40;27.90;53.50
38090;DHT22;23904;52.322;10.232;2023-07-16T15:28:06;27.70;52.80